Time,TemperatureF,DewpointF,PressureIn,WindDirection,WindDirectionDegrees,WindSpeedMPH,WindSpeedGustMPH,Humidity,HourlyPrecipIn,Conditions,Clouds,dailyrainin,SolarRadiationWatts/m^2,SoftwareType,DateUTC
2013-01-15 08:09:00,36.6,35.0,30.34,NNE,19,0.0,0.0,94,0.00,,,0.07,1434,Wunderground v.1.15,2013-01-15 13:09:00,
2013-01-15 08:10:00,36.6,35.0,30.34,NNE,19,0.0,1.0,94,0.00,,,0.07,1434,Wunderground v.1.15,2013-01-15 13:10:00,
2013-01-15 08:11:00,36.6,35.0,30.35,NNE,19,0.0,1.0,94,0.00,,,0.07,1434,Wunderground v.1.15,2013-01-15 13:11:00,
2013-01-15 08:15:00,36.6,35.0,30.36,NNE,18,1.0,2.0,94,0.00,,,0.07,1434,Wunderground v.1.15,2013-01-15 13:15:00,
2013-01-15 08:20:00,36.6,35.0,30.35,NNE,18,1.0,1.0,94,0.00,,,0.07,1434,Wunderground v.1.15,2013-01-15 13:20:00,
2013-01-15 08:25:00,36.7,35.1,30.35,NNE,19,1.0,3.0,94,0.00,,,0.07,1436,Wunderground v.1.15,2013-01-15 13:25:00,
2013-01-15 08:31:00,36.8,35.2,30.34,NNE,19,2.0,3.0,94,0.00,,,0.07,1434,Wunderground v.1.15,2013-01-15 13:31:00,
2013-01-15 08:36:00,36.8,35.2,30.34,NNE,19,2.0,3.0,94,0.00,,,0.07,1433,Wunderground v.1.15,2013-01-15 13:36:00,
2013-01-15 08:42:00,36.8,35.2,30.35,NNE,19,2.0,4.0,94,0.00,,,0.07,1429,Wunderground v.1.15,2013-01-15 13:42:00,
2013-01-15 08:47:00,36.7,35.1,30.35,NNE,19,3.0,4.0,94,0.00,,,0.07,1429,Wunderground v.1.15,2013-01-15 13:47:00,
2013-01-15 08:52:00,36.7,35.1,30.36,NNE,18,3.0,4.0,94,0.00,,,0.07,1426,Wunderground v.1.15,2013-01-15 13:52:00,
2013-01-15 08:58:00,36.7,35.1,30.37,NNE,19,3.0,5.0,94,0.00,,,0.07,1426,Wunderground v.1.15,2013-01-15 13:58:00,
2013-01-15 09:03:00,36.7,34.9,30.36,NNE,19,2.0,3.0,93,0.00,,,0.07,1424,Wunderground v.1.15,2013-01-15 14:03:00,
2013-01-15 09:08:00,36.7,34.9,30.37,NNE,19,2.0,4.0,93,0.00,,,0.07,1422,Wunderground v.1.15,2013-01-15 14:08:00,
2013-01-15 09:14:00,36.9,35.1,30.37,NNE,18,3.0,4.0,93,0.00,,,0.07,1419,Wunderground v.1.15,2013-01-15 14:14:00,
2013-01-15 09:19:00,36.9,35.1,30.37,NNE,18,3.0,4.0,93,0.00,,,0.07,1415,Wunderground v.1.15,2013-01-15 14:19:00,
2013-01-15 09:25:00,37.0,35.2,30.37,NNE,18,3.0,5.0,93,0.00,,,0.07,1413,Wunderground v.1.15,2013-01-15 14:25:00,
2013-01-15 09:30:00,37.1,35.3,30.37,NNE,18,4.0,5.0,93,0.00,,,0.07,1413,Wunderground v.1.15,2013-01-15 14:30:00,
2013-01-15 09:35:00,37.1,35.0,30.38,NNE,18,4.0,5.0,92,0.00,,,0.07,1413,Wunderground v.1.15,2013-01-15 14:35:00,
2013-01-15 09:41:00,37.2,35.1,30.37,NNE,13,5.0,5.0,92,0.00,,,0.07,1403,Wunderground v.1.15,2013-01-15 14:41:00,
2013-01-15 09:46:00,37.4,35.3,30.37,North,5,5.0,6.0,92,0.00,,,0.07,1401,Wunderground v.1.15,2013-01-15 14:46:00,
2013-01-15 09:51:00,37.4,35.3,30.36,North,5,4.0,5.0,92,0.00,,,0.07,1403,Wunderground v.1.15,2013-01-15 14:51:00,
2013-01-15 09:57:00,37.5,35.4,30.36,North,5,4.0,6.0,92,0.00,,,0.07,1403,Wunderground v.1.15,2013-01-15 14:57:00,
2013-01-15 10:02:00,37.5,35.4,30.37,North,355,5.0,7.0,92,0.00,,,0.07,1403,Wunderground v.1.15,2013-01-15 15:02:00,
2013-01-15 10:08:00,37.4,35.3,30.37,North,355,5.0,7.0,92,0.00,,,0.07,1403,Wunderground v.1.15,2013-01-15 15:08:00,
2013-01-15 10:13:00,37.3,34.9,30.36,North,355,5.0,7.0,91,0.00,,,0.07,1403,Wunderground v.1.15,2013-01-15 15:13:00,
2013-01-15 10:18:00,37.4,35.0,30.37,North,355,5.0,7.0,91,0.00,,,0.07,1403,Wunderground v.1.15,2013-01-15 15:18:00,
2013-01-15 10:24:00,37.4,35.0,30.35,North,360,5.0,6.0,91,0.00,,,0.07,1403,Wunderground v.1.15,2013-01-15 15:24:00,
2013-01-15 10:29:00,37.3,34.9,30.37,North,355,5.0,7.0,91,0.00,,,0.07,1401,Wunderground v.1.15,2013-01-15 15:29:00,
2013-01-15 10:35:00,37.2,34.5,30.38,NNW,344,6.0,8.0,90,0.00,,,0.07,1403,Wunderground v.1.15,2013-01-15 15:35:00,
2013-01-15 10:40:00,37.1,34.4,30.35,NNW,344,5.0,5.0,90,0.00,,,0.07,1403,Wunderground v.1.15,2013-01-15 15:40:00,
2013-01-15 10:46:00,37.1,34.4,30.35,NNW,344,4.0,6.0,90,0.00,,,0.07,1403,Wunderground v.1.15,2013-01-15 15:46:00,
2013-01-15 10:51:00,37.1,34.4,30.36,NNW,346,4.0,5.0,90,0.00,,,0.07,1401,Wunderground v.1.15,2013-01-15 15:51:00,
2013-01-15 10:57:00,37.2,34.5,30.36,NNW,346,4.0,6.0,90,0.00,,,0.07,1397,Wunderground v.1.15,2013-01-15 15:57:00,
2013-01-15 11:02:00,37.1,34.2,30.35,NNW,344,4.0,6.0,89,0.00,,,0.07,1394,Wunderground v.1.15,2013-01-15 16:02:00,
2013-01-15 11:07:00,37.1,34.2,30.36,NNW,344,4.0,6.0,89,0.00,,,0.07,1390,Wunderground v.1.15,2013-01-15 16:07:00,
2013-01-15 11:13:00,37.1,34.2,30.37,NNW,344,3.0,3.0,89,0.00,,,0.07,1387,Wunderground v.1.15,2013-01-15 16:13:00,
2013-01-15 11:18:00,37.1,34.2,30.37,NNW,342,3.0,8.0,89,0.00,,,0.07,1382,Wunderground v.1.15,2013-01-15 16:18:00,
2013-01-15 11:23:00,37.2,34.3,30.35,NNW,342,3.0,4.0,89,0.00,,,0.07,1382,Wunderground v.1.15,2013-01-15 16:23:00,
2013-01-15 11:28:00,37.3,34.4,30.35,NNW,342,1.0,4.0,89,0.00,,,0.07,1383,Wunderground v.1.15,2013-01-15 16:28:00,
2013-01-15 11:34:00,37.3,34.1,30.35,NNW,341,2.0,4.0,88,0.00,,,0.07,1382,Wunderground v.1.15,2013-01-15 16:34:00,
2013-01-15 11:39:00,37.3,34.1,30.35,NNW,342,3.0,6.0,88,0.00,,,0.07,1382,Wunderground v.1.15,2013-01-15 16:39:00,
2013-01-15 11:45:00,37.3,34.1,30.33,NNW,341,2.0,4.0,88,0.00,,,0.07,1382,Wunderground v.1.15,2013-01-15 16:45:00,
2013-01-15 11:50:00,37.4,34.2,30.33,NNW,342,2.0,2.0,88,0.00,,,0.07,1382,Wunderground v.1.15,2013-01-15 16:50:00,
2013-01-15 11:55:00,37.3,34.1,30.34,NNW,342,3.0,4.0,88,0.00,,,0.07,1380,Wunderground v.1.15,2013-01-15 16:55:00,
2013-01-15 12:01:00,37.2,33.7,30.32,NNW,342,4.0,4.0,87,0.00,,,0.07,1382,Wunderground v.1.15,2013-01-15 17:01:00,
2013-01-15 12:06:00,37.2,33.7,30.32,NNW,342,4.0,4.0,87,0.00,,,0.07,1380,Wunderground v.1.15,2013-01-15 17:06:00,
2013-01-15 12:12:00,37.3,33.8,30.32,NNW,342,4.0,5.0,87,0.00,,,0.07,1382,Wunderground v.1.15,2013-01-15 17:12:00,
2013-01-15 12:17:00,37.3,33.8,30.32,NNW,342,4.0,5.0,87,0.00,,,0.07,1382,Wunderground v.1.15,2013-01-15 17:17:00,
2013-01-15 12:22:00,37.4,33.9,30.33,NNW,342,2.0,4.0,87,0.00,,,0.07,1382,Wunderground v.1.15,2013-01-15 17:22:00,
2013-01-15 12:28:00,37.5,33.7,30.31,NNW,341,3.0,5.0,86,0.00,,,0.07,1380,Wunderground v.1.15,2013-01-15 17:28:00,
2013-01-15 12:33:00,37.5,33.7,30.32,NNW,341,3.0,3.0,86,0.00,,,0.07,1378,Wunderground v.1.15,2013-01-15 17:33:00,
2013-01-15 12:39:00,37.7,33.9,30.31,NNW,341,2.0,4.0,86,0.00,,,0.07,1376,Wunderground v.1.15,2013-01-15 17:39:00,
2013-01-15 12:44:00,37.7,33.9,30.32,NNW,341,3.0,5.0,86,0.00,,,0.07,1376,Wunderground v.1.15,2013-01-15 17:44:00,
2013-01-15 12:49:00,37.7,33.9,30.30,NNW,342,3.0,5.0,86,0.00,,,0.07,1375,Wunderground v.1.15,2013-01-15 17:49:00,
2013-01-15 12:55:00,37.9,33.8,30.30,NNW,342,2.0,3.0,85,0.00,,,0.07,1373,Wunderground v.1.15,2013-01-15 17:55:00,
2013-01-15 13:00:00,38.0,33.9,30.30,NNW,342,1.0,2.0,85,0.00,,,0.07,1371,Wunderground v.1.15,2013-01-15 18:00:00,
2013-01-15 13:06:00,37.9,33.8,30.29,NNW,342,1.0,3.0,85,0.00,,,0.07,1371,Wunderground v.1.15,2013-01-15 18:06:00,
2013-01-15 13:11:00,37.8,33.7,30.28,NNW,342,1.0,1.0,85,0.00,,,0.07,1373,Wunderground v.1.15,2013-01-15 18:11:00,
2013-01-15 13:16:00,37.9,33.8,30.29,NNW,342,1.0,2.0,85,0.00,,,0.07,1373,Wunderground v.1.15,2013-01-15 18:16:00,
2013-01-15 13:22:00,37.8,33.7,30.27,NNW,342,1.0,1.0,85,0.00,,,0.07,1373,Wunderground v.1.15,2013-01-15 18:22:00,
2013-01-15 13:27:00,37.9,33.8,30.27,NNW,342,1.0,4.0,85,0.00,,,0.07,1371,Wunderground v.1.15,2013-01-15 18:27:00,
2013-01-15 13:33:00,37.9,33.5,30.27,NNW,342,1.0,2.0,84,0.00,,,0.07,1371,Wunderground v.1.15,2013-01-15 18:33:00,
2013-01-15 13:38:00,37.9,33.8,30.26,NNW,341,1.0,2.0,85,0.00,,,0.07,1371,Wunderground v.1.15,2013-01-15 18:38:00,
2013-01-15 13:43:00,38.0,33.9,30.26,NNW,342,0.0,1.0,85,0.00,,,0.07,1369,Wunderground v.1.15,2013-01-15 18:43:00,
2013-01-15 13:49:00,38.2,33.8,30.27,NNW,342,0.0,1.0,84,0.00,,,0.07,1366,Wunderground v.1.15,2013-01-15 18:49:00,
2013-01-15 13:54:00,38.2,33.2,30.29,NNW,342,0.0,0.0,82,0.00,,,0.07,1376,Wunderground v.1.15,2013-01-15 18:54:00,
2013-01-15 13:59:00,38.2,33.5,30.28,NNW,341,0.0,0.0,83,0.00,,,0.07,1366,Wunderground v.1.15,2013-01-15 18:59:00,
2013-01-15 14:05:00,38.4,33.4,30.28,NNW,341,0.0,0.0,82,0.00,,,0.07,1364,Wunderground v.1.15,2013-01-15 19:05:00,
2013-01-15 14:10:00,38.4,33.4,30.27,NNW,342,0.0,0.0,82,0.00,,,0.07,1364,Wunderground v.1.15,2013-01-15 19:10:00,
2013-01-15 14:15:00,38.4,33.1,30.26,NNW,342,0.0,0.0,81,0.00,,,0.07,1364,Wunderground v.1.15,2013-01-15 19:15:00,
2013-01-15 14:21:00,38.6,33.3,30.26,NNW,342,0.0,1.0,81,0.00,,,0.07,1364,Wunderground v.1.15,2013-01-15 19:21:00,
2013-01-15 14:26:00,38.7,33.4,30.25,NNW,342,1.0,3.0,81,0.00,,,0.07,1362,Wunderground v.1.15,2013-01-15 19:26:00,
2013-01-15 14:31:00,38.8,33.5,30.25,NNW,342,2.0,2.0,81,0.00,,,0.07,1364,Wunderground v.1.15,2013-01-15 19:31:00,
2013-01-15 14:37:00,38.8,33.2,30.26,NNW,342,2.0,2.0,80,0.00,,,0.07,1366,Wunderground v.1.15,2013-01-15 19:37:00,
2013-01-15 14:42:00,38.8,33.2,30.26,NNW,341,1.0,2.0,80,0.00,,,0.07,1368,Wunderground v.1.15,2013-01-15 19:42:00,
2013-01-15 14:48:00,38.8,33.5,30.28,NNW,342,1.0,3.0,81,0.00,,,0.07,1371,Wunderground v.1.15,2013-01-15 19:48:00,
2013-01-15 14:53:00,38.7,33.1,30.28,NNW,342,1.0,2.0,80,0.00,,,0.07,1375,Wunderground v.1.15,2013-01-15 19:53:00,
2013-01-15 14:58:00,38.7,33.1,30.27,NNW,342,1.0,2.0,80,0.00,,,0.07,1378,Wunderground v.1.15,2013-01-15 19:58:00,
2013-01-15 15:03:00,38.6,33.0,30.27,NNW,342,0.0,2.0,80,0.00,,,0.07,1382,Wunderground v.1.15,2013-01-15 20:03:00,
2013-01-15 15:09:00,38.5,33.2,30.28,NNW,342,0.0,2.0,81,0.00,,,0.07,1383,Wunderground v.1.15,2013-01-15 20:09:00,
2013-01-15 15:14:00,38.5,32.9,30.28,NNW,342,0.0,1.0,80,0.00,,,0.07,1387,Wunderground v.1.15,2013-01-15 20:14:00,
2013-01-15 15:20:00,38.5,33.2,30.28,NNW,342,1.0,1.0,81,0.00,,,0.07,1389,Wunderground v.1.15,2013-01-15 20:20:00,
2013-01-15 15:25:00,38.4,33.1,30.28,NNW,341,1.0,1.0,81,0.00,,,0.07,1392,Wunderground v.1.15,2013-01-15 20:25:00,
2013-01-15 15:30:00,38.4,33.4,30.29,NNW,342,0.0,0.0,82,0.00,,,0.07,1394,Wunderground v.1.15,2013-01-15 20:30:00,
2013-01-15 15:36:00,38.4,33.4,30.29,NNW,342,0.0,3.0,82,0.00,,,0.07,1397,Wunderground v.1.15,2013-01-15 20:36:00,
2013-01-15 15:41:00,38.4,33.7,30.28,NNW,341,1.0,1.0,83,0.00,,,0.07,1399,Wunderground v.1.15,2013-01-15 20:41:00,
2013-01-15 15:47:00,38.3,33.6,30.29,NNW,342,0.0,2.0,83,0.00,,,0.07,1401,Wunderground v.1.15,2013-01-15 20:47:00,
2013-01-15 15:53:00,38.2,33.5,30.28,NNW,342,0.0,0.0,83,0.00,,,0.07,1404,Wunderground v.1.15,2013-01-15 20:53:00,
2013-01-15 15:58:00,38.1,33.7,30.27,NNW,342,1.0,3.0,84,0.00,,,0.07,1406,Wunderground v.1.15,2013-01-15 20:58:00,
2013-01-15 16:03:00,38.0,33.9,30.27,NNW,342,1.0,2.0,85,0.00,,,0.07,1408,Wunderground v.1.15,2013-01-15 21:03:00,
2013-01-15 16:09:00,37.9,34.1,30.26,NNW,342,1.0,3.0,86,0.00,,,0.07,1412,Wunderground v.1.15,2013-01-15 21:09:00,
2013-01-15 16:14:00,37.8,34.3,30.26,NNW,341,1.0,4.0,87,0.00,,,0.07,1413,Wunderground v.1.15,2013-01-15 21:14:00,
2013-01-15 16:20:00,37.6,34.1,30.25,NNW,342,2.0,2.0,87,0.00,,,0.07,1415,Wunderground v.1.15,2013-01-15 21:20:00,
2013-01-15 16:25:00,37.5,34.3,30.25,NNW,342,2.0,2.0,88,0.00,,,0.07,1417,Wunderground v.1.15,2013-01-15 21:25:00,
2013-01-15 16:30:00,37.2,34.3,30.25,NNW,342,2.0,3.0,89,0.00,,,0.07,1419,Wunderground v.1.15,2013-01-15 21:30:00,
2013-01-15 16:36:00,37.0,34.3,30.25,NNW,342,1.0,3.0,90,0.00,,,0.07,1420,Wunderground v.1.15,2013-01-15 21:36:00,
2013-01-15 16:42:00,37.0,34.3,30.25,NNW,341,1.0,3.0,90,0.00,,,0.07,1420,Wunderground v.1.15,2013-01-15 21:42:00,
2013-01-15 16:47:00,36.9,34.2,30.25,NNW,341,1.0,4.0,90,0.00,,,0.07,1422,Wunderground v.1.15,2013-01-15 21:47:00,
2013-01-15 16:52:00,36.9,34.5,30.26,NNW,342,1.0,2.0,91,0.00,,,0.07,1422,Wunderground v.1.15,2013-01-15 21:52:00,
2013-01-15 16:57:00,36.8,34.4,30.26,NNW,341,1.0,3.0,91,0.00,,,0.07,1422,Wunderground v.1.15,2013-01-15 21:57:00,
2013-01-15 17:03:00,36.8,34.4,30.26,NNW,341,1.0,1.0,91,0.00,,,0.07,1420,Wunderground v.1.15,2013-01-15 22:03:00,
2013-01-15 17:08:00,36.8,34.4,30.27,NNW,342,2.0,4.0,91,0.00,,,0.07,1420,Wunderground v.1.15,2013-01-15 22:08:00,
2013-01-15 17:14:00,36.8,34.7,30.28,NNW,342,3.0,4.0,92,0.00,,,0.07,1420,Wunderground v.1.15,2013-01-15 22:14:00,
2013-01-15 17:19:00,36.7,34.6,30.28,NNW,342,3.0,4.0,92,0.00,,,0.07,1420,Wunderground v.1.15,2013-01-15 22:19:00,
2013-01-15 17:25:00,36.6,34.5,30.28,NNW,342,3.0,3.0,92,0.00,,,0.07,1420,Wunderground v.1.15,2013-01-15 22:25:00,
2013-01-15 17:30:00,36.6,34.5,30.28,NNW,341,2.0,2.0,92,0.00,,,0.07,1419,Wunderground v.1.15,2013-01-15 22:30:00,
2013-01-15 17:36:00,36.6,34.5,30.28,NNW,341,1.0,2.0,92,0.00,,,0.07,1419,Wunderground v.1.15,2013-01-15 22:36:00,
2013-01-15 17:41:00,36.5,34.4,30.27,NNW,342,0.0,0.0,92,0.00,,,0.07,1419,Wunderground v.1.15,2013-01-15 22:41:00,
2013-01-15 17:47:00,36.5,34.4,30.27,NNW,342,0.0,0.0,92,0.00,,,0.07,1419,Wunderground v.1.15,2013-01-15 22:47:00,
2013-01-15 17:52:00,36.5,34.4,30.27,NNW,342,0.0,2.0,92,0.00,,,0.07,1419,Wunderground v.1.15,2013-01-15 22:52:00,
2013-01-15 17:57:00,36.5,34.4,30.27,NNW,342,0.0,2.0,92,0.00,,,0.07,1419,Wunderground v.1.15,2013-01-15 22:57:00,
2013-01-15 18:03:00,36.7,34.6,30.26,NNW,342,1.0,3.0,92,0.00,,,0.07,1417,Wunderground v.1.15,2013-01-15 23:03:00,
2013-01-15 18:08:00,36.7,34.6,30.26,NNW,341,1.0,3.0,92,0.00,,,0.07,1417,Wunderground v.1.15,2013-01-15 23:08:00,
2013-01-15 18:13:00,36.8,34.7,30.26,NNW,341,2.0,3.0,92,0.00,,,0.07,1415,Wunderground v.1.15,2013-01-15 23:13:00,
2013-01-15 18:18:00,36.7,34.6,30.27,NNW,342,1.0,3.0,92,0.00,,,0.07,1415,Wunderground v.1.15,2013-01-15 23:18:00,
2013-01-15 18:24:00,36.7,34.6,30.27,NNW,341,1.0,3.0,92,0.00,,,0.07,1415,Wunderground v.1.15,2013-01-15 23:24:00,
2013-01-15 18:29:00,36.6,34.5,30.27,NNW,342,1.0,3.0,92,0.00,,,0.07,1415,Wunderground v.1.15,2013-01-15 23:29:00,
2013-01-15 18:35:00,36.6,34.5,30.27,NNW,342,1.0,2.0,92,0.00,,,0.07,1415,Wunderground v.1.15,2013-01-15 23:35:00,
2013-01-15 18:40:00,36.6,34.8,30.27,NNW,342,1.0,5.0,93,0.00,,,0.08,1415,Wunderground v.1.15,2013-01-15 23:40:00,
2013-01-15 18:45:00,36.5,34.4,30.28,NNW,342,2.0,5.0,92,0.10,,,0.09,1415,Wunderground v.1.15,2013-01-15 23:45:00,
2013-01-15 18:51:00,36.4,34.3,30.28,NNW,342,2.0,2.0,92,0.11,,,0.10,1415,Wunderground v.1.15,2013-01-15 23:51:00,
2013-01-15 18:56:00,36.3,34.5,30.28,NNW,342,1.0,2.0,93,0.10,,,0.11,1415,Wunderground v.1.15,2013-01-15 23:56:00,
2013-01-15 19:02:00,36.1,34.3,30.29,NNW,342,1.0,3.0,93,0.11,,,0.12,1413,Wunderground v.1.15,2013-01-16 00:02:00,
2013-01-15 19:08:00,35.9,33.8,30.29,NNW,341,2.0,3.0,92,0.08,,,0.13,1413,Wunderground v.1.15,2013-01-16 00:08:00,
2013-01-15 19:14:00,35.8,34.0,30.29,NNW,342,2.0,3.0,93,0.09,,,0.14,1412,Wunderground v.1.15,2013-01-16 00:14:00,
2013-01-15 19:19:00,35.7,33.9,30.28,NNW,342,2.0,3.0,93,0.09,,,0.14,1412,Wunderground v.1.15,2013-01-16 00:19:00,
2013-01-15 19:24:00,35.7,33.9,30.28,NNW,342,2.0,3.0,93,0.06,,,0.15,1412,Wunderground v.1.15,2013-01-16 00:24:00,
2013-01-15 19:30:00,35.7,33.9,30.28,NNW,342,2.0,2.0,93,0.09,,,0.16,1412,Wunderground v.1.15,2013-01-16 00:30:00,
2013-01-15 19:35:00,35.7,33.9,30.27,NNW,341,1.0,2.0,93,0.12,,,0.17,1410,Wunderground v.1.15,2013-01-16 00:35:00,
2013-01-15 19:40:00,35.7,33.9,30.27,NNW,341,1.0,1.0,93,0.10,,,0.17,1410,Wunderground v.1.15,2013-01-16 00:40:00,
2013-01-15 19:46:00,35.6,33.8,30.27,NNW,341,1.0,2.0,93,0.08,,,0.18,1410,Wunderground v.1.15,2013-01-16 00:46:00,
2013-01-15 19:51:00,35.6,33.8,30.26,NNW,341,2.0,3.0,93,0.07,,,0.18,1408,Wunderground v.1.15,2013-01-16 00:51:00,
2013-01-15 19:56:00,35.5,33.9,30.26,NNW,341,2.0,3.0,94,0.06,,,0.19,1408,Wunderground v.1.15,2013-01-16 00:56:00,
2013-01-15 20:02:00,35.4,33.8,30.26,NNW,342,1.0,2.0,94,0.09,,,0.20,1406,Wunderground v.1.15,2013-01-16 01:02:00,
2013-01-15 20:07:00,35.3,33.7,30.26,NNW,342,2.0,2.0,94,0.07,,,0.20,1404,Wunderground v.1.15,2013-01-16 01:07:00,
2013-01-15 20:13:00,35.2,33.4,30.26,NNW,342,2.0,3.0,93,0.06,,,0.21,1406,Wunderground v.1.15,2013-01-16 01:13:00,
2013-01-15 20:18:00,35.2,33.6,30.26,NNW,342,2.0,3.0,94,0.06,,,0.21,1404,Wunderground v.1.15,2013-01-16 01:18:00,
2013-01-15 20:23:00,35.0,33.4,30.26,NNW,341,3.0,3.0,94,0.06,,,0.22,1404,Wunderground v.1.15,2013-01-16 01:23:00,
2013-01-15 20:29:00,34.9,33.3,30.26,NNW,343,3.0,6.0,94,0.06,,,0.22,1404,Wunderground v.1.15,2013-01-16 01:29:00,
2013-01-15 20:34:00,34.8,33.2,30.26,NNW,343,3.0,4.0,94,0.05,,,0.23,1404,Wunderground v.1.15,2013-01-16 01:34:00,
2013-01-15 20:39:00,34.6,33.1,30.26,North,350,3.0,6.0,94,0.08,,,0.24,1404,Wunderground v.1.15,2013-01-16 01:39:00,
2013-01-15 20:45:00,34.5,33.0,30.25,North,350,2.0,4.0,94,0.10,,,0.25,1404,Wunderground v.1.15,2013-01-16 01:45:00,
2013-01-15 20:50:00,34.4,32.9,30.25,North,351,1.0,2.0,94,0.10,,,0.26,1406,Wunderground v.1.15,2013-01-16 01:50:00,
2013-01-15 20:56:00,34.4,32.9,30.25,North,350,1.0,3.0,94,0.09,,,0.26,1406,Wunderground v.1.15,2013-01-16 01:56:00,
2013-01-15 21:01:00,34.4,32.9,30.25,North,350,1.0,3.0,94,0.15,,,0.28,1404,Wunderground v.1.15,2013-01-16 02:01:00,
2013-01-15 21:06:00,34.4,32.9,30.25,North,355,1.0,4.0,94,0.14,,,0.29,1404,Wunderground v.1.15,2013-01-16 02:06:00,
2013-01-15 21:12:00,34.3,32.8,30.23,North,355,2.0,2.0,94,0.14,,,0.30,1404,Wunderground v.1.15,2013-01-16 02:12:00,
2013-01-15 21:17:00,34.2,32.7,30.23,North,5,2.0,4.0,94,0.14,,,0.32,1404,Wunderground v.1.15,2013-01-16 02:17:00,
2013-01-15 21:23:00,34.0,32.5,30.23,North,360,2.0,7.0,94,0.14,,,0.33,1404,Wunderground v.1.15,2013-01-16 02:23:00,
2013-01-15 21:28:00,33.8,32.3,30.24,North,360,2.0,7.0,94,0.08,,,0.33,1403,Wunderground v.1.15,2013-01-16 02:28:00,
2013-01-15 21:33:00,33.7,32.2,30.23,North,360,3.0,5.0,94,0.08,,,0.34,1404,Wunderground v.1.15,2013-01-16 02:33:00,
2013-01-15 21:38:00,33.7,32.2,30.23,North,5,2.0,5.0,94,0.07,,,0.35,1403,Wunderground v.1.15,2013-01-16 02:38:00,
2013-01-15 21:44:00,33.6,32.1,30.22,North,9,2.0,3.0,94,0.09,,,0.35,1404,Wunderground v.1.15,2013-01-16 02:44:00,
2013-01-15 21:49:00,33.5,32.2,30.23,North,10,2.0,5.0,95,0.09,,,0.36,1403,Wunderground v.1.15,2013-01-16 02:49:00,
2013-01-15 21:54:00,33.5,32.0,30.22,North,10,3.0,6.0,94,0.06,,,0.36,1401,Wunderground v.1.15,2013-01-16 02:54:00,